createdAt,value
2017-06-20T00:01:56.480Z,60.70
2017-06-20T00:04:23.676Z,62.20
2017-06-20T00:06:50.112Z,62.10
2017-06-20T00:09:16.538Z,62.60
2017-06-20T00:11:42.910Z,62.20
2017-06-20T00:14:10.057Z,61.30
2017-06-20T00:16:36.458Z,61.30
2017-06-20T00:19:02.856Z,60.20
2017-06-20T00:21:29.245Z,59.80
2017-06-20T00:23:55.645Z,59.70
2017-06-20T00:26:22.027Z,59.80
2017-06-20T00:28:49.344Z,59.90
2017-06-20T00:31:15.763Z,59.80
2017-06-20T00:33:42.171Z,59.00
2017-06-20T00:36:08.573Z,59.30
2017-06-20T00:38:35.033Z,59.50
2017-06-20T00:41:01.451Z,60.30
2017-06-20T00:43:28.599Z,60.60
2017-06-20T00:45:55.776Z,61.30
2017-06-20T00:48:22.176Z,61.10
2017-06-20T00:50:49.313Z,62.40
2017-06-20T00:53:15.728Z,62.20
2017-06-20T00:55:42.139Z,62.00
2017-06-20T00:58:08.549Z,62.00
2017-06-20T01:00:34.961Z,61.80
2017-06-20T01:03:02.111Z,61.00
2017-06-20T01:05:29.239Z,61.20
2017-06-20T01:07:55.672Z,61.00
2017-06-20T01:10:22.092Z,61.00
2017-06-20T01:12:48.518Z,61.50
2017-06-20T01:15:14.923Z,61.70
2017-06-20T01:17:41.328Z,62.10
2017-06-20T01:20:08.491Z,62.00
2017-06-20T01:22:34.921Z,62.00
2017-06-20T01:25:01.315Z,61.20
2017-06-20T01:27:27.720Z,60.60
2017-06-20T01:29:54.155Z,59.70
2017-06-20T01:32:20.586Z,59.30
2017-06-20T01:34:47.466Z,60.60
2017-06-20T01:37:13.865Z,61.20
2017-06-20T01:39:40.300Z,61.70
2017-06-20T01:42:06.763Z,61.80
2017-06-20T01:44:33.243Z,62.50
2017-06-20T01:46:59.689Z,62.60
2017-06-20T01:49:26.099Z,61.90
2017-06-20T01:51:52.524Z,62.10
2017-06-20T01:54:19.011Z,61.80
2017-06-20T01:56:45.430Z,61.30
2017-06-20T01:59:11.841Z,61.00
2017-06-20T02:01:38.343Z,61.70
2017-06-20T02:04:05.559Z,61.50
2017-06-20T02:06:31.992Z,61.50
2017-06-20T02:08:58.455Z,62.20
2017-06-20T02:11:25.695Z,62.20
2017-06-20T02:13:52.178Z,62.70
2017-06-20T02:16:18.584Z,63.40
2017-06-20T02:18:45.748Z,64.30
2017-06-20T02:21:12.181Z,64.10
2017-06-20T02:23:38.620Z,65.10
2017-06-20T02:26:05.137Z,65.10
2017-06-20T02:28:32.343Z,63.80
2017-06-20T02:30:58.798Z,63.60
2017-06-20T02:33:25.641Z,63.40
2017-06-20T02:35:52.112Z,62.50
2017-06-20T02:38:18.519Z,62.20
2017-06-20T02:40:45.717Z,63.10
2017-06-20T02:43:12.134Z,62.90
2017-06-20T02:45:38.534Z,62.80
2017-06-20T02:48:04.933Z,63.20
2017-06-20T02:50:31.337Z,62.80
2017-06-20T02:52:57.772Z,62.20
2017-06-20T02:55:24.191Z,62.50
2017-06-20T02:57:50.627Z,62.90
2017-06-20T03:00:17.885Z,62.60
2017-06-20T03:02:44.302Z,62.60
2017-06-20T03:05:10.740Z,62.60
2017-06-20T03:07:37.148Z,62.80
2017-06-20T03:10:04.289Z,63.30
2017-06-20T03:12:30.699Z,63.30
2017-06-20T03:14:57.120Z,63.10
2017-06-20T03:17:23.521Z,63.60
2017-06-20T03:19:49.919Z,63.90
2017-06-20T03:22:16.345Z,63.50
2017-06-20T03:24:42.790Z,63.80
2017-06-20T03:27:09.957Z,64.10
2017-06-20T03:29:36.431Z,64.00
2017-06-20T03:32:02.844Z,64.10
2017-06-20T03:34:29.248Z,63.90
2017-06-20T03:36:56.388Z,62.70
2017-06-20T03:39:22.802Z,63.20
2017-06-20T03:41:49.216Z,63.10
2017-06-20T03:44:15.610Z,63.10
2017-06-20T03:46:42.018Z,63.40
2017-06-20T03:49:08.482Z,63.30
2017-06-20T03:51:34.916Z,63.20
2017-06-20T03:54:01.333Z,63.20
2017-06-20T03:56:27.752Z,63.60
2017-06-20T03:58:54.901Z,64.50
2017-06-20T04:01:22.051Z,65.00
2017-06-20T04:03:49.272Z,65.20
2017-06-20T04:06:15.698Z,65.20
2017-06-20T04:08:42.109Z,65.10
2017-06-20T04:11:08.531Z,65.80
2017-06-20T04:13:34.960Z,65.70
2017-06-20T04:16:01.468Z,65.80
2017-06-20T04:18:27.876Z,65.90
2017-06-20T04:21:00.509Z,65.80
2017-06-20T04:23:26.940Z,65.40
2017-06-20T04:25:53.383Z,65.60
2017-06-20T04:28:19.788Z,65.80
2017-06-20T04:30:46.956Z,66.30
2017-06-20T04:33:13.339Z,66.30
2017-06-20T04:35:39.760Z,66.90
2017-06-20T04:38:06.160Z,67.00
2017-06-20T04:40:32.565Z,66.70
2017-06-20T04:42:59.701Z,66.40
2017-06-20T04:45:26.123Z,66.40
2017-06-20T04:47:52.538Z,66.20
2017-06-20T04:50:18.946Z,66.00
2017-06-20T04:52:45.367Z,66.40
2017-06-20T04:55:11.773Z,66.40
2017-06-20T04:57:38.941Z,65.90
2017-06-20T05:00:05.366Z,65.70
2017-06-20T05:02:32.515Z,65.30
2017-06-20T05:04:59.000Z,65.20
2017-06-20T05:07:25.500Z,64.90
2017-06-20T05:09:51.940Z,64.60
2017-06-20T05:12:18.350Z,64.80
2017-06-20T05:14:44.804Z,65.20
2017-06-20T05:17:11.229Z,65.30
2017-06-20T05:19:37.688Z,65.40
2017-06-20T05:22:04.113Z,64.50
2017-06-20T05:24:30.533Z,63.90
2017-06-20T05:26:56.936Z,63.60
2017-06-20T05:29:24.096Z,62.10
2017-06-20T05:31:51.266Z,60.30
2017-06-20T05:34:17.680Z,60.20
2017-06-20T05:36:44.125Z,59.50
2017-06-20T05:39:11.277Z,58.90
2017-06-20T05:41:37.679Z,58.90
2017-06-20T05:44:04.988Z,58.60
2017-06-20T05:46:31.402Z,58.50
2017-06-20T05:48:58.752Z,56.50
2017-06-20T05:51:25.193Z,56.30
2017-06-20T05:53:51.656Z,55.50
2017-06-20T05:56:18.048Z,54.40
2017-06-20T05:58:44.478Z,53.50
2017-06-20T06:01:10.927Z,51.60
2017-06-20T06:03:37.352Z,50.10
2017-06-20T06:06:03.764Z,49.40
2017-06-20T06:08:30.241Z,47.80
2017-06-20T06:10:56.675Z,46.80
2017-06-20T06:13:23.065Z,44.80
2017-06-20T06:15:50.195Z,44.90
2017-06-20T06:18:16.602Z,44.80
2017-06-20T06:20:43.035Z,43.80
2017-06-20T06:23:09.436Z,42.90
2017-06-20T06:25:35.837Z,41.30
2017-06-20T06:28:03.010Z,40.30
2017-06-20T06:30:29.416Z,39.80
2017-06-20T06:32:56.544Z,39.30
2017-06-20T06:35:22.992Z,39.30
2017-06-20T06:37:49.447Z,40.00
2017-06-20T06:40:15.829Z,40.00
2017-06-20T06:42:42.243Z,40.50
2017-06-20T06:45:08.640Z,41.40
2017-06-20T06:47:35.793Z,40.00
2017-06-20T06:50:02.923Z,39.20
2017-06-20T06:52:29.354Z,39.20
2017-06-20T06:54:55.766Z,38.00
2017-06-20T06:57:22.166Z,38.30
2017-06-20T06:59:48.595Z,39.10
2017-06-20T07:02:15.013Z,38.80
2017-06-20T07:04:41.408Z,38.80
2017-06-20T07:07:07.800Z,38.90
2017-06-20T07:09:47.159Z,38.00
2017-06-20T07:12:13.604Z,37.70
2017-06-20T07:14:40.037Z,36.70
2017-06-20T07:17:06.461Z,36.40
2017-06-20T07:19:32.868Z,37.70
2017-06-20T07:21:59.272Z,37.70
2017-06-20T07:24:26.396Z,37.60
2017-06-20T07:26:52.809Z,37.50
2017-06-20T07:29:19.220Z,36.30
2017-06-20T07:31:45.646Z,35.60
2017-06-20T07:34:12.073Z,35.50
2017-06-20T07:36:38.519Z,36.10
2017-06-20T07:39:04.994Z,36.10
2017-06-20T07:41:31.429Z,35.50
2017-06-20T07:43:57.820Z,35.70
2017-06-20T07:46:24.224Z,37.00
2017-06-20T07:48:51.360Z,37.20
2017-06-20T07:51:18.756Z,37.10
2017-06-20T07:53:45.155Z,37.30
2017-06-20T07:56:12.291Z,36.20
2017-06-20T07:58:39.551Z,36.30
2017-06-20T08:01:05.986Z,36.20
2017-06-20T08:03:32.438Z,36.20
2017-06-20T08:05:58.872Z,36.40
2017-06-20T08:08:25.265Z,36.80
2017-06-20T08:10:51.709Z,36.70
2017-06-20T08:13:18.879Z,36.90
2017-06-20T08:15:46.009Z,34.80
2017-06-20T08:18:12.405Z,34.80
2017-06-20T08:20:38.911Z,35.00
2017-06-20T08:23:05.299Z,36.00
2017-06-20T08:25:31.692Z,36.80
2017-06-20T08:27:58.104Z,35.80
2017-06-20T08:30:24.529Z,36.80
2017-06-20T08:32:50.922Z,35.80
2017-06-20T08:35:18.028Z,35.50
2017-06-20T08:37:44.448Z,34.50
2017-06-20T08:40:10.876Z,34.40
2017-06-20T08:42:37.278Z,34.10
2017-06-20T08:45:03.723Z,34.30
2017-06-20T08:47:30.921Z,33.90
2017-06-20T08:49:57.324Z,33.80
2017-06-20T08:52:23.740Z,34.10
2017-06-20T08:54:50.181Z,33.90
2017-06-20T08:57:17.304Z,32.20
2017-06-20T08:59:43.734Z,32.10
2017-06-20T09:02:10.136Z,31.20
2017-06-20T09:04:36.599Z,32.10
2017-06-20T09:07:03.036Z,32.60
2017-06-20T09:09:29.456Z,32.80
2017-06-20T09:11:55.895Z,32.20
2017-06-20T09:14:22.369Z,32.40
2017-06-20T09:16:49.506Z,29.20
2017-06-20T09:19:16.003Z,29.10
2017-06-20T09:21:42.462Z,30.00
2017-06-20T09:24:08.931Z,30.10
2017-06-20T09:26:35.383Z,28.60
2017-06-20T09:29:01.845Z,28.50
2017-06-20T09:31:28.275Z,28.30
2017-06-20T09:33:54.700Z,28.70
2017-06-20T09:36:21.225Z,29.20
2017-06-20T09:38:47.682Z,29.70
2017-06-20T09:41:14.121Z,29.20
2017-06-20T09:43:40.575Z,27.90
2017-06-20T09:46:07.036Z,28.60
2017-06-20T09:48:33.518Z,28.50
2017-06-20T09:50:59.966Z,28.60
2017-06-20T09:53:29.349Z,28.90
2017-06-20T09:55:55.806Z,29.30
2017-06-20T09:58:22.252Z,27.90
2017-06-20T10:00:49.446Z,27.90
2017-06-20T10:03:15.912Z,27.80
2017-06-20T10:05:42.334Z,27.70
2017-06-20T10:08:08.769Z,27.50
2017-06-20T10:10:35.221Z,27.50
2017-06-20T10:13:01.652Z,27.40
2017-06-20T10:15:28.120Z,27.20
2017-06-20T10:17:54.569Z,27.80
2017-06-20T10:20:21.034Z,26.90
2017-06-20T10:22:47.469Z,27.30
2017-06-20T10:25:13.862Z,27.20
2017-06-20T10:27:40.284Z,26.70
2017-06-20T10:30:07.443Z,28.00
2017-06-20T10:32:33.871Z,27.80
2017-06-20T10:35:00.285Z,26.80
2017-06-20T10:37:26.687Z,27.80
2017-06-20T10:39:53.102Z,27.70
2017-06-20T10:42:19.493Z,27.60
2017-06-20T10:44:46.621Z,27.40
2017-06-20T10:47:13.037Z,26.90
2017-06-20T10:49:39.442Z,27.70
2017-06-20T10:52:05.848Z,26.80
2017-06-20T10:54:32.273Z,26.80
2017-06-20T10:56:59.433Z,27.40
2017-06-20T10:59:25.829Z,27.00
2017-06-20T11:01:52.247Z,27.10
2017-06-20T11:04:18.664Z,26.80
2017-06-20T11:06:45.085Z,26.30
2017-06-20T11:09:11.478Z,26.50
2017-06-20T11:11:38.629Z,27.10
2017-06-20T11:14:05.795Z,26.20
2017-06-20T11:16:32.198Z,26.10
2017-06-20T11:18:58.612Z,27.10
2017-06-20T11:21:25.011Z,26.60
2017-06-20T11:23:51.424Z,27.60
2017-06-20T11:26:17.855Z,26.00
2017-06-20T11:28:44.291Z,26.00
2017-06-20T11:31:11.464Z,26.70
2017-06-20T11:33:37.879Z,26.70
2017-06-20T11:36:04.302Z,26.90
2017-06-20T11:38:31.468Z,26.50
2017-06-20T11:40:59.000Z,26.60
2017-06-20T11:43:25.404Z,26.60
2017-06-20T11:45:51.794Z,26.60
2017-06-20T11:48:18.221Z,27.40
2017-06-20T11:50:45.392Z,25.40
2017-06-20T11:53:11.793Z,25.30
2017-06-20T11:55:38.964Z,25.20
2017-06-20T11:58:05.384Z,25.20
2017-06-20T12:00:31.841Z,24.80
2017-06-20T12:02:58.301Z,25.00
2017-06-20T12:05:24.729Z,24.40
2017-06-20T12:07:51.149Z,24.30
2017-06-20T12:10:17.586Z,24.50
2017-06-20T12:12:44.001Z,25.10
2017-06-20T12:15:10.432Z,23.50
2017-06-20T12:17:36.823Z,24.30
2017-06-20T12:20:03.223Z,23.60
2017-06-20T12:22:29.641Z,22.40
2017-06-20T12:24:56.033Z,22.60
2017-06-20T12:27:22.468Z,22.60
2017-06-20T12:29:49.613Z,23.40
2017-06-20T12:32:16.029Z,23.40
2017-06-20T12:34:42.421Z,23.60
2017-06-20T12:37:08.854Z,24.00
2017-06-20T12:39:35.279Z,23.90
2017-06-20T12:42:01.684Z,23.90
2017-06-20T12:44:28.112Z,24.60
2017-06-20T12:46:54.547Z,24.30
2017-06-20T12:49:21.002Z,24.40
2017-06-20T12:51:47.490Z,24.20
2017-06-20T12:54:14.004Z,24.40
2017-06-20T12:56:40.447Z,24.50
2017-06-20T12:59:06.852Z,24.40
2017-06-20T13:01:33.248Z,24.40
2017-06-20T13:04:06.748Z,24.50
2017-06-20T13:06:33.168Z,24.10
2017-06-20T13:08:59.573Z,24.50
2017-06-20T13:11:25.996Z,24.50
2017-06-20T13:13:52.411Z,24.50
2017-06-20T13:16:18.829Z,24.60
2017-06-20T13:18:45.249Z,24.30
2017-06-20T13:21:11.660Z,24.20
2017-06-20T13:23:38.045Z,24.80
2017-06-20T13:26:04.594Z,24.20
2017-06-20T13:28:31.076Z,24.20
2017-06-20T13:30:58.235Z,24.90
2017-06-20T13:33:24.658Z,24.50
2017-06-20T13:35:51.082Z,24.10
2017-06-20T13:38:17.469Z,24.50
2017-06-20T13:40:43.868Z,24.20
2017-06-20T13:43:10.348Z,24.10
2017-06-20T13:45:36.747Z,23.90
2017-06-20T13:48:03.919Z,25.00
2017-06-20T13:50:30.320Z,25.00
2017-06-20T13:52:57.512Z,24.90
2017-06-20T13:55:23.928Z,24.90
2017-06-20T13:57:50.364Z,25.50
2017-06-20T14:00:16.767Z,25.40
2017-06-20T14:02:43.167Z,24.90
2017-06-20T14:05:09.572Z,25.60
2017-06-20T14:07:35.979Z,25.10
2017-06-20T14:10:03.108Z,24.70
2017-06-20T14:12:29.511Z,24.60
2017-06-20T14:14:55.909Z,24.00
2017-06-20T14:17:22.307Z,24.60
2017-06-20T14:19:48.739Z,25.50
2017-06-20T14:22:15.145Z,26.20
2017-06-20T14:24:41.543Z,25.00
2017-06-20T14:27:25.007Z,25.00
2017-06-20T14:29:51.427Z,24.70
2017-06-20T14:32:17.813Z,24.60
2017-06-20T14:34:44.235Z,25.20
2017-06-20T14:37:11.378Z,24.40
2017-06-20T14:39:37.810Z,24.30
2017-06-20T14:42:04.225Z,24.70
2017-06-20T14:44:30.644Z,25.10
2017-06-20T14:46:57.036Z,25.30
2017-06-20T14:49:23.469Z,25.60
2017-06-20T14:51:50.637Z,25.50
2017-06-20T14:54:17.837Z,25.40
2017-06-20T14:56:44.255Z,24.70
2017-06-20T14:59:10.665Z,25.30
2017-06-20T15:01:37.103Z,25.60
2017-06-20T15:04:03.536Z,24.80
2017-06-20T15:06:29.932Z,24.80
2017-06-20T15:08:56.321Z,24.90
2017-06-20T15:11:22.732Z,24.70
2017-06-20T15:13:49.127Z,25.10
2017-06-20T15:16:16.271Z,25.00
2017-06-20T15:18:42.683Z,25.00
2017-06-20T15:21:09.111Z,26.10
2017-06-20T15:23:35.536Z,25.90
2017-06-20T15:26:01.924Z,26.20
2017-06-20T15:28:28.331Z,26.50
2017-06-20T15:30:55.462Z,27.00
2017-06-20T15:33:21.875Z,27.00
2017-06-20T15:35:48.282Z,26.90
2017-06-20T15:38:14.692Z,27.10
2017-06-20T15:40:43.960Z,27.00
2017-06-20T15:43:10.352Z,26.90
2017-06-20T15:45:36.736Z,27.80
2017-06-20T15:48:03.159Z,27.30
2017-06-20T15:50:29.585Z,27.30
2017-06-20T15:52:55.995Z,27.40
2017-06-20T15:55:22.412Z,26.80
2017-06-20T15:57:48.831Z,27.10
2017-06-20T16:00:15.255Z,27.50
2017-06-20T16:02:41.662Z,27.00
2017-06-20T16:05:08.066Z,26.70
2017-06-20T16:07:34.445Z,27.00
2017-06-20T16:10:00.851Z,27.20
2017-06-20T16:12:27.245Z,26.40
2017-06-20T16:14:53.664Z,26.90
2017-06-20T16:17:20.063Z,27.70
2017-06-20T16:19:46.456Z,28.00
2017-06-20T16:22:12.866Z,27.20
2017-06-20T16:24:39.264Z,27.20
2017-06-20T16:27:05.678Z,27.40
2017-06-20T16:29:32.063Z,27.30
2017-06-20T16:31:58.460Z,27.20
2017-06-20T16:34:24.865Z,28.30
2017-06-20T16:36:51.260Z,27.70
2017-06-20T16:39:17.728Z,27.60
2017-06-20T16:41:44.135Z,28.00
2017-06-20T16:44:10.549Z,28.70
2017-06-20T16:46:36.973Z,28.80
2017-06-20T16:49:03.400Z,29.30
2017-06-20T16:51:29.830Z,28.70
2017-06-20T16:53:56.268Z,28.30
2017-06-20T16:56:22.686Z,28.20
2017-06-20T16:58:49.075Z,28.20
2017-06-20T17:01:15.488Z,28.40
2017-06-20T17:03:41.897Z,28.60
2017-06-20T17:06:09.224Z,29.20
2017-06-20T17:08:35.611Z,28.20
2017-06-20T17:11:02.014Z,28.80
2017-06-20T17:13:28.433Z,29.20
2017-06-20T17:15:54.843Z,28.40
2017-06-20T17:18:21.253Z,29.00
2017-06-20T17:20:47.657Z,29.40
2017-06-20T17:23:14.803Z,28.60
2017-06-20T17:25:41.212Z,28.60
2017-06-20T17:28:07.620Z,28.40
2017-06-20T17:30:33.996Z,27.80
2017-06-20T17:33:01.129Z,29.40
2017-06-20T17:35:27.549Z,28.90
2017-06-20T17:37:53.956Z,28.70
2017-06-20T17:40:20.373Z,28.50
2017-06-20T17:42:46.801Z,28.60
2017-06-20T17:45:13.233Z,28.80
2017-06-20T17:47:39.642Z,29.10
2017-06-20T17:50:06.046Z,29.40
2017-06-20T17:52:32.439Z,29.10
2017-06-20T17:54:58.858Z,29.50
2017-06-20T17:57:25.271Z,29.40
2017-06-20T17:59:52.406Z,30.00
2017-06-20T18:02:19.573Z,30.70
2017-06-20T18:04:46.730Z,30.70
2017-06-20T18:07:13.148Z,30.70
2017-06-20T18:09:39.520Z,31.30
2017-06-20T18:12:05.933Z,31.90
2017-06-20T18:14:32.351Z,32.40
2017-06-20T18:16:59.587Z,32.60
2017-06-20T18:19:26.006Z,32.50
2017-06-20T18:21:53.556Z,32.60
2017-06-20T18:24:19.967Z,32.80
2017-06-20T18:26:46.374Z,33.20
2017-06-20T18:29:12.805Z,32.40
2017-06-20T18:31:39.960Z,33.00
2017-06-20T18:34:07.095Z,32.70
2017-06-20T18:36:34.241Z,32.50
2017-06-20T18:39:01.404Z,33.20
2017-06-20T18:41:28.555Z,33.50
2017-06-20T18:43:55.703Z,33.30
2017-06-20T18:46:22.872Z,33.30
2017-06-20T18:48:49.273Z,33.30
2017-06-20T18:51:15.690Z,33.40
2017-06-20T18:53:42.117Z,34.10
2017-06-20T18:56:08.554Z,34.90
2017-06-20T18:58:34.955Z,35.50
2017-06-20T19:01:01.352Z,37.20
2017-06-20T19:03:28.542Z,39.70
2017-06-20T19:05:54.974Z,39.70
2017-06-20T19:08:21.360Z,39.80
2017-06-20T19:10:48.527Z,40.30
2017-06-20T19:13:15.731Z,38.50
2017-06-20T19:15:42.132Z,38.50
2017-06-20T19:18:08.560Z,39.70
2017-06-20T19:20:35.362Z,38.60
2017-06-20T19:23:01.797Z,38.30
2017-06-20T19:25:29.005Z,39.30
2017-06-20T19:27:55.433Z,39.30
2017-06-20T19:30:21.892Z,39.30
2017-06-20T19:32:48.307Z,39.70
2017-06-20T19:35:14.714Z,39.50
2017-06-20T19:37:41.139Z,39.70
2017-06-20T19:40:07.547Z,39.50
2017-06-20T19:42:33.978Z,39.30
2017-06-20T19:45:00.394Z,39.40
2017-06-20T19:47:26.817Z,39.70
2017-06-20T19:49:53.229Z,40.30
2017-06-20T19:52:19.652Z,40.60
2017-06-20T19:54:46.119Z,40.60
2017-06-20T19:57:12.582Z,41.10
2017-06-20T19:59:39.004Z,42.10
2017-06-20T20:02:05.433Z,43.10
2017-06-20T20:04:31.819Z,44.10
2017-06-20T20:06:58.192Z,45.60
2017-06-20T20:09:24.610Z,46.40
2017-06-20T20:11:51.045Z,45.00
2017-06-20T20:14:17.448Z,45.00
2017-06-20T20:16:43.905Z,44.80
2017-06-20T20:19:10.321Z,44.90
2017-06-20T20:21:36.760Z,46.60
2017-06-20T20:24:03.283Z,48.00
2017-06-20T20:26:29.678Z,48.20
2017-06-20T20:28:56.832Z,48.00
2017-06-20T20:31:24.001Z,47.30
2017-06-20T20:33:50.479Z,47.30
2017-06-20T20:36:16.875Z,48.30
2017-06-20T20:38:43.314Z,48.00
2017-06-20T20:41:09.724Z,48.90
2017-06-20T20:43:36.135Z,48.70
2017-06-20T20:46:02.548Z,48.50
2017-06-20T20:48:28.977Z,48.80
2017-06-20T20:50:55.401Z,48.80
2017-06-20T20:53:21.831Z,48.70
2017-06-20T20:55:48.242Z,49.50
2017-06-20T20:58:14.656Z,49.60
2017-06-20T21:00:41.849Z,51.00
2017-06-20T21:03:08.225Z,50.90
2017-06-20T21:05:35.401Z,51.80
2017-06-20T21:08:01.811Z,51.70
2017-06-20T21:10:29.924Z,52.20
2017-06-20T21:12:56.351Z,52.20
2017-06-20T21:15:22.769Z,52.50
2017-06-20T21:17:49.176Z,52.20
2017-06-20T21:20:15.605Z,51.70
2017-06-20T21:22:42.037Z,51.70
2017-06-20T21:25:08.453Z,52.10
2017-06-20T21:27:34.873Z,51.80
2017-06-20T21:30:01.309Z,51.60
2017-06-20T21:32:27.729Z,51.50
2017-06-20T21:34:54.143Z,51.60
2017-06-20T21:37:20.574Z,51.30
2017-06-20T21:39:47.031Z,52.60
2017-06-20T21:42:13.429Z,52.60
2017-06-20T21:44:39.849Z,53.20
2017-06-20T21:47:06.988Z,54.00
2017-06-20T21:49:33.397Z,53.90
2017-06-20T21:51:59.793Z,53.60
2017-06-20T21:54:26.221Z,53.80
2017-06-20T21:56:52.629Z,53.30
2017-06-20T21:59:19.781Z,53.50
2017-06-20T22:01:46.939Z,54.40
2017-06-20T22:04:14.113Z,53.70
2017-06-20T22:06:40.485Z,53.60
2017-06-20T22:09:06.927Z,53.90
2017-06-20T22:11:33.304Z,53.70
2017-06-20T22:13:59.743Z,54.00
2017-06-20T22:16:26.187Z,53.50
2017-06-20T22:18:52.667Z,53.40
2017-06-20T22:21:19.115Z,53.50
2017-06-20T22:23:45.532Z,53.50
2017-06-20T22:26:12.682Z,54.40
2017-06-20T22:28:39.121Z,53.80
2017-06-20T22:31:05.513Z,53.80
2017-06-20T22:33:31.922Z,54.00
2017-06-20T22:35:58.332Z,55.00
2017-06-20T22:38:25.503Z,55.50
2017-06-20T22:40:51.905Z,55.40
2017-06-20T22:43:18.498Z,55.70
2017-06-20T22:45:44.919Z,56.30
2017-06-20T22:48:11.315Z,56.70
2017-06-20T22:50:38.459Z,56.50
2017-06-20T22:53:05.629Z,56.40
2017-06-20T22:55:32.036Z,56.30
2017-06-20T22:57:58.436Z,55.60
2017-06-20T23:00:24.857Z,55.60
2017-06-20T23:02:51.281Z,55.00
2017-06-20T23:05:17.737Z,55.10
2017-06-20T23:07:44.131Z,55.40
2017-06-20T23:10:10.548Z,55.60
2017-06-20T23:12:37.721Z,57.10
2017-06-20T23:15:04.142Z,57.10
2017-06-20T23:17:30.569Z,56.90
2017-06-20T23:19:57.717Z,57.60
2017-06-20T23:22:24.870Z,57.30
2017-06-20T23:24:51.275Z,57.30
2017-06-20T23:27:17.701Z,57.20
2017-06-20T23:29:44.326Z,57.20
2017-06-20T23:32:10.787Z,58.20
2017-06-20T23:34:37.952Z,60.60
2017-06-20T23:37:05.084Z,60.70
2017-06-20T23:39:31.487Z,60.30
2017-06-20T23:41:57.952Z,59.50
2017-06-20T23:44:24.401Z,59.60
2017-06-20T23:46:51.569Z,58.80
2017-06-20T23:49:18.029Z,58.80
2017-06-20T23:51:44.417Z,58.90
2017-06-20T23:54:11.560Z,59.50
2017-06-20T23:56:38.720Z,59.20
2017-06-20T23:59:05.863Z,59.00
